sensor_id;sensor_type;location;lat;lon;timestamp;P1;durP1;ratioP1;P2;durP2;ratioP2
76758;SDS011;65701;45.588;5.186;2023-02-28T00:01:30;22.00;;;16.00;;
76758;SDS011;65701;45.588;5.186;2023-02-28T00:03:56;17.25;;;16.25;;
76758;SDS011;65701;45.588;5.186;2023-02-28T00:06:22;15.00;;;14.50;;
76758;SDS011;65701;45.588;5.186;2023-02-28T00:08:49;21.25;;;16.75;;
76758;SDS011;65701;45.588;5.186;2023-02-28T00:11:14;12.25;;;12.25;;
76758;SDS011;65701;45.588;5.186;2023-02-28T00:13:42;20.75;;;17.00;;
76758;SDS011;65701;45.588;5.186;2023-02-28T00:16:12;19.75;;;17.00;;
76758;SDS011;65701;45.588;5.186;2023-02-28T00:18:40;18.00;;;16.25;;
76758;SDS011;65701;45.588;5.186;2023-02-28T00:21:06;17.75;;;13.75;;
76758;SDS011;65701;45.588;5.186;2023-02-28T00:23:32;18.00;;;16.75;;
76758;SDS011;65701;45.588;5.186;2023-02-28T00:25:58;20.00;;;15.00;;
76758;SDS011;65701;45.588;5.186;2023-02-28T00:28:23;23.00;;;17.25;;
76758;SDS011;65701;45.588;5.186;2023-02-28T00:30:49;18.25;;;17.00;;
76758;SDS011;65701;45.588;5.186;2023-02-28T00:33:15;17.25;;;14.50;;
76758;SDS011;65701;45.588;5.186;2023-02-28T00:35:41;17.00;;;16.25;;
76758;SDS011;65701;45.588;5.186;2023-02-28T00:38:08;19.75;;;17.75;;
76758;SDS011;65701;45.588;5.186;2023-02-28T00:40:34;16.25;;;15.00;;
76758;SDS011;65701;45.588;5.186;2023-02-28T00:42:59;17.50;;;17.50;;
76758;SDS011;65701;45.588;5.186;2023-02-28T00:45:25;12.75;;;12.25;;
76758;SDS011;65701;45.588;5.186;2023-02-28T00:47:50;21.25;;;17.00;;
76758;SDS011;65701;45.588;5.186;2023-02-28T00:50:17;17.00;;;14.50;;
76758;SDS011;65701;45.588;5.186;2023-02-28T00:52:43;17.50;;;17.50;;
76758;SDS011;65701;45.588;5.186;2023-02-28T00:55:09;19.00;;;15.25;;
76758;SDS011;65701;45.588;5.186;2023-02-28T00:57:35;19.25;;;16.25;;
76758;SDS011;65701;45.588;5.186;2023-02-28T01:00:00;16.50;;;16.50;;
76758;SDS011;65701;45.588;5.186;2023-02-28T01:02:26;20.25;;;15.00;;
76758;SDS011;65701;45.588;5.186;2023-02-28T01:04:52;18.75;;;15.00;;
76758;SDS011;65701;45.588;5.186;2023-02-28T01:07:17;23.25;;;18.50;;
76758;SDS011;65701;45.588;5.186;2023-02-28T01:09:42;15.50;;;13.00;;
76758;SDS011;65701;45.588;5.186;2023-02-28T01:12:08;13.25;;;13.25;;
76758;SDS011;65701;45.588;5.186;2023-02-28T01:14:34;17.00;;;15.25;;
76758;SDS011;65701;45.588;5.186;2023-02-28T01:17:01;20.00;;;18.25;;
76758;SDS011;65701;45.588;5.186;2023-02-28T01:19:26;18.00;;;16.33;;
76758;SDS011;65701;45.588;5.186;2023-02-28T01:21:52;15.00;;;12.50;;
76758;SDS011;65701;45.588;5.186;2023-02-28T01:24:17;17.00;;;14.75;;
76758;SDS011;65701;45.588;5.186;2023-02-28T01:26:43;18.50;;;15.75;;
76758;SDS011;65701;45.588;5.186;2023-02-28T01:29:08;39.25;;;36.50;;
76758;SDS011;65701;45.588;5.186;2023-02-28T01:31:34;18.00;;;17.75;;
76758;SDS011;65701;45.588;5.186;2023-02-28T01:34:00;14.00;;;14.00;;
76758;SDS011;65701;45.588;5.186;2023-02-28T01:36:25;17.50;;;16.25;;
76758;SDS011;65701;45.588;5.186;2023-02-28T01:38:51;22.50;;;18.50;;
76758;SDS011;65701;45.588;5.186;2023-02-28T01:41:18;18.50;;;15.50;;
76758;SDS011;65701;45.588;5.186;2023-02-28T01:46:11;14.00;;;13.25;;
76758;SDS011;65701;45.588;5.186;2023-02-28T01:48:40;10.25;;;7.50;;
76758;SDS011;65701;45.588;5.186;2023-02-28T01:51:18;19.50;;;18.75;;
76758;SDS011;65701;45.588;5.186;2023-02-28T01:53:53;16.50;;;15.00;;
76758;SDS011;65701;45.588;5.186;2023-02-28T01:56:25;18.75;;;13.25;;
76758;SDS011;65701;45.588;5.186;2023-02-28T01:58:54;17.25;;;16.00;;
76758;SDS011;65701;45.588;5.186;2023-02-28T02:01:21;18.00;;;15.25;;
76758;SDS011;65701;45.588;5.186;2023-02-28T02:03:49;15.00;;;12.25;;
76758;SDS011;65701;45.588;5.186;2023-02-28T02:06:30;16.75;;;13.25;;
76758;SDS011;65701;45.588;5.186;2023-02-28T02:09:00;19.75;;;16.25;;
76758;SDS011;65701;45.588;5.186;2023-02-28T02:11:27;16.25;;;15.75;;
76758;SDS011;65701;45.588;5.186;2023-02-28T02:17:06;13.00;;;8.00;;
76758;SDS011;65701;45.588;5.186;2023-02-28T02:19:58;21.00;;;18.50;;
76758;SDS011;65701;45.588;5.186;2023-02-28T02:28:35;20.50;;;17.50;;
76758;SDS011;65701;45.588;5.186;2023-02-28T02:36:38;19.00;;;14.25;;
76758;SDS011;65701;45.588;5.186;2023-02-28T02:39:24;17.75;;;14.50;;
76758;SDS011;65701;45.588;5.186;2023-02-28T02:42:00;14.00;;;12.50;;
76758;SDS011;65701;45.588;5.186;2023-02-28T02:44:35;13.25;;;13.25;;
76758;SDS011;65701;45.588;5.186;2023-02-28T02:47:16;15.50;;;14.00;;
76758;SDS011;65701;45.588;5.186;2023-02-28T02:49:49;25.25;;;19.50;;
76758;SDS011;65701;45.588;5.186;2023-02-28T02:52:20;20.50;;;18.50;;
76758;SDS011;65701;45.588;5.186;2023-02-28T02:54:50;14.50;;;14.50;;
76758;SDS011;65701;45.588;5.186;2023-02-28T02:57:21;16.75;;;16.75;;
76758;SDS011;65701;45.588;5.186;2023-02-28T02:59:51;12.25;;;12.25;;
76758;SDS011;65701;45.588;5.186;2023-02-28T03:02:20;22.25;;;13.75;;
76758;SDS011;65701;45.588;5.186;2023-02-28T03:04:48;12.75;;;12.75;;
76758;SDS011;65701;45.588;5.186;2023-02-28T03:07:18;20.75;;;17.00;;
76758;SDS011;65701;45.588;5.186;2023-02-28T03:09:54;14.25;;;13.75;;
76758;SDS011;65701;45.588;5.186;2023-02-28T03:12:21;13.00;;;11.00;;
76758;SDS011;65701;45.588;5.186;2023-02-28T03:15:18;16.75;;;11.25;;
76758;SDS011;65701;45.588;5.186;2023-02-28T03:23:07;20.00;;;17.25;;
76758;SDS011;65701;45.588;5.186;2023-02-28T03:28:28;14.75;;;14.00;;
76758;SDS011;65701;45.588;5.186;2023-02-28T03:31:03;16.25;;;14.50;;
76758;SDS011;65701;45.588;5.186;2023-02-28T03:33:50;17.00;;;12.75;;
76758;SDS011;65701;45.588;5.186;2023-02-28T03:36:23;14.75;;;13.50;;
76758;SDS011;65701;45.588;5.186;2023-02-28T03:38:59;15.00;;;15.00;;
76758;SDS011;65701;45.588;5.186;2023-02-28T03:41:31;11.00;;;11.00;;
76758;SDS011;65701;45.588;5.186;2023-02-28T03:45:04;11.25;;;10.50;;
76758;SDS011;65701;45.588;5.186;2023-02-28T03:47:17;10.25;;;9.50;;
76758;SDS011;65701;45.588;5.186;2023-02-28T03:49:53;13.00;;;10.50;;
76758;SDS011;65701;45.588;5.186;2023-02-28T03:52:53;11.25;;;10.50;;
76758;SDS011;65701;45.588;5.186;2023-02-28T03:55:26;14.75;;;11.50;;
76758;SDS011;65701;45.588;5.186;2023-02-28T03:58:22;15.50;;;12.75;;
76758;SDS011;65701;45.588;5.186;2023-02-28T04:01:04;13.50;;;10.75;;
76758;SDS011;65701;45.588;5.186;2023-02-28T04:03:35;11.25;;;8.50;;
76758;SDS011;65701;45.588;5.186;2023-02-28T04:06:02;9.50;;;8.25;;
76758;SDS011;65701;45.588;5.186;2023-02-28T04:08:28;6.00;;;4.00;;
76758;SDS011;65701;45.588;5.186;2023-02-28T04:10:56;9.75;;;9.25;;
76758;SDS011;65701;45.588;5.186;2023-02-28T04:13:28;15.25;;;9.75;;
76758;SDS011;65701;45.588;5.186;2023-02-28T04:15:53;12.25;;;10.50;;
76758;SDS011;65701;45.588;5.186;2023-02-28T04:18:19;15.00;;;13.00;;
76758;SDS011;65701;45.588;5.186;2023-02-28T04:20:44;15.75;;;12.25;;
76758;SDS011;65701;45.588;5.186;2023-02-28T04:23:10;11.00;;;11.00;;
76758;SDS011;65701;45.588;5.186;2023-02-28T04:25:35;10.00;;;8.00;;
76758;SDS011;65701;45.588;5.186;2023-02-28T04:28:01;14.75;;;12.00;;
76758;SDS011;65701;45.588;5.186;2023-02-28T04:30:26;11.00;;;11.00;;
76758;SDS011;65701;45.588;5.186;2023-02-28T04:32:52;17.50;;;10.75;;
76758;SDS011;65701;45.588;5.186;2023-02-28T04:35:17;11.75;;;11.75;;
76758;SDS011;65701;45.588;5.186;2023-02-28T04:37:43;12.75;;;11.00;;
76758;SDS011;65701;45.588;5.186;2023-02-28T04:40:08;12.00;;;11.75;;
76758;SDS011;65701;45.588;5.186;2023-02-28T04:42:34;14.00;;;13.50;;
76758;SDS011;65701;45.588;5.186;2023-02-28T04:45:03;18.25;;;13.75;;
76758;SDS011;65701;45.588;5.186;2023-02-28T04:47:29;16.25;;;12.50;;
76758;SDS011;65701;45.588;5.186;2023-02-28T04:49:55;18.50;;;15.00;;
76758;SDS011;65701;45.588;5.186;2023-02-28T04:52:21;11.25;;;11.25;;
76758;SDS011;65701;45.588;5.186;2023-02-28T04:54:46;13.00;;;13.00;;
76758;SDS011;65701;45.588;5.186;2023-02-28T04:57:12;17.75;;;13.50;;
76758;SDS011;65701;45.588;5.186;2023-02-28T04:59:37;14.25;;;14.25;;
76758;SDS011;65701;45.588;5.186;2023-02-28T05:02:03;12.25;;;12.25;;
76758;SDS011;65701;45.588;5.186;2023-02-28T05:04:34;11.00;;;11.00;;
76758;SDS011;65701;45.588;5.186;2023-02-28T05:07:00;10.25;;;7.75;;
76758;SDS011;65701;45.588;5.186;2023-02-28T05:09:27;12.00;;;11.50;;
76758;SDS011;65701;45.588;5.186;2023-02-28T05:11:53;13.25;;;13.25;;
76758;SDS011;65701;45.588;5.186;2023-02-28T05:14:19;14.25;;;9.75;;
76758;SDS011;65701;45.588;5.186;2023-02-28T05:16:45;12.75;;;10.50;;
76758;SDS011;65701;45.588;5.186;2023-02-28T05:19:10;14.25;;;9.25;;
76758;SDS011;65701;45.588;5.186;2023-02-28T05:21:37;15.25;;;14.00;;
76758;SDS011;65701;45.588;5.186;2023-02-28T05:24:10;16.50;;;14.00;;
76758;SDS011;65701;45.588;5.186;2023-02-28T05:26:38;16.50;;;14.00;;
76758;SDS011;65701;45.588;5.186;2023-02-28T05:29:05;15.00;;;15.00;;
76758;SDS011;65701;45.588;5.186;2023-02-28T05:31:31;11.75;;;10.75;;
76758;SDS011;65701;45.588;5.186;2023-02-28T05:33:57;14.00;;;12.25;;
76758;SDS011;65701;45.588;5.186;2023-02-28T05:36:23;11.25;;;11.25;;
76758;SDS011;65701;45.588;5.186;2023-02-28T05:38:49;11.75;;;11.75;;
76758;SDS011;65701;45.588;5.186;2023-02-28T05:41:16;10.50;;;10.50;;
76758;SDS011;65701;45.588;5.186;2023-02-28T05:43:42;9.25;;;9.25;;
76758;SDS011;65701;45.588;5.186;2023-02-28T05:46:09;10.50;;;10.25;;
76758;SDS011;65701;45.588;5.186;2023-02-28T05:48:36;14.75;;;13.00;;
76758;SDS011;65701;45.588;5.186;2023-02-28T05:51:03;14.25;;;13.75;;
76758;SDS011;65701;45.588;5.186;2023-02-28T05:53:30;20.25;;;13.75;;
76758;SDS011;65701;45.588;5.186;2023-02-28T05:55:55;14.00;;;13.50;;
76758;SDS011;65701;45.588;5.186;2023-02-28T05:58:22;15.75;;;10.75;;
76758;SDS011;65701;45.588;5.186;2023-02-28T06:00:48;10.00;;;8.75;;
76758;SDS011;65701;45.588;5.186;2023-02-28T06:03:14;14.00;;;12.00;;
76758;SDS011;65701;45.588;5.186;2023-02-28T06:05:39;13.50;;;11.75;;
76758;SDS011;65701;45.588;5.186;2023-02-28T06:08:05;21.25;;;14.50;;
76758;SDS011;65701;45.588;5.186;2023-02-28T06:10:34;10.50;;;8.00;;
76758;SDS011;65701;45.588;5.186;2023-02-28T06:13:00;14.00;;;14.00;;
76758;SDS011;65701;45.588;5.186;2023-02-28T06:15:27;14.00;;;14.00;;
76758;SDS011;65701;45.588;5.186;2023-02-28T06:17:54;11.25;;;11.00;;
76758;SDS011;65701;45.588;5.186;2023-02-28T06:20:21;16.00;;;11.00;;
76758;SDS011;65701;45.588;5.186;2023-02-28T06:22:47;12.75;;;10.50;;
76758;SDS011;65701;45.588;5.186;2023-02-28T06:25:13;11.50;;;9.00;;
76758;SDS011;65701;45.588;5.186;2023-02-28T06:27:38;12.75;;;10.75;;
76758;SDS011;65701;45.588;5.186;2023-02-28T06:30:04;13.50;;;10.75;;
76758;SDS011;65701;45.588;5.186;2023-02-28T06:32:30;14.75;;;10.00;;
76758;SDS011;65701;45.588;5.186;2023-02-28T06:34:55;11.00;;;9.50;;
76758;SDS011;65701;45.588;5.186;2023-02-28T06:37:23;15.00;;;15.00;;
76758;SDS011;65701;45.588;5.186;2023-02-28T06:39:51;11.75;;;9.75;;
76758;SDS011;65701;45.588;5.186;2023-02-28T06:42:17;17.00;;;14.00;;
76758;SDS011;65701;45.588;5.186;2023-02-28T06:44:42;10.75;;;10.25;;
76758;SDS011;65701;45.588;5.186;2023-02-28T06:47:08;12.25;;;12.25;;
76758;SDS011;65701;45.588;5.186;2023-02-28T06:49:34;11.50;;;11.00;;
76758;SDS011;65701;45.588;5.186;2023-02-28T06:52:00;13.00;;;11.00;;
76758;SDS011;65701;45.588;5.186;2023-02-28T06:54:26;16.25;;;12.50;;
76758;SDS011;65701;45.588;5.186;2023-02-28T06:56:52;18.75;;;13.50;;
76758;SDS011;65701;45.588;5.186;2023-02-28T06:59:19;8.00;;;8.00;;
76758;SDS011;65701;45.588;5.186;2023-02-28T07:01:45;14.25;;;13.25;;
76758;SDS011;65701;45.588;5.186;2023-02-28T07:04:10;19.00;;;14.50;;
76758;SDS011;65701;45.588;5.186;2023-02-28T07:06:38;17.00;;;15.50;;
76758;SDS011;65701;45.588;5.186;2023-02-28T07:09:04;20.00;;;15.00;;
76758;SDS011;65701;45.588;5.186;2023-02-28T07:11:29;15.25;;;15.00;;
76758;SDS011;65701;45.588;5.186;2023-02-28T07:13:55;16.00;;;13.75;;
76758;SDS011;65701;45.588;5.186;2023-02-28T07:16:21;16.25;;;14.00;;
76758;SDS011;65701;45.588;5.186;2023-02-28T07:18:48;22.00;;;13.00;;
76758;SDS011;65701;45.588;5.186;2023-02-28T07:21:14;15.00;;;12.25;;
76758;SDS011;65701;45.588;5.186;2023-02-28T07:23:39;15.75;;;13.50;;
76758;SDS011;65701;45.588;5.186;2023-02-28T07:26:07;18.75;;;15.75;;
76758;SDS011;65701;45.588;5.186;2023-02-28T07:28:37;17.00;;;14.75;;
76758;SDS011;65701;45.588;5.186;2023-02-28T07:31:04;17.25;;;13.50;;
76758;SDS011;65701;45.588;5.186;2023-02-28T07:33:31;19.75;;;15.75;;
76758;SDS011;65701;45.588;5.186;2023-02-28T07:36:00;29.75;;;27.50;;
76758;SDS011;65701;45.588;5.186;2023-02-28T07:38:29;15.25;;;15.25;;
76758;SDS011;65701;45.588;5.186;2023-02-28T07:40:55;57.75;;;46.00;;
76758;SDS011;65701;45.588;5.186;2023-02-28T07:43:20;22.00;;;19.00;;
76758;SDS011;65701;45.588;5.186;2023-02-28T07:45:46;43.50;;;34.00;;
76758;SDS011;65701;45.588;5.186;2023-02-28T07:48:11;12.25;;;10.50;;
76758;SDS011;65701;45.588;5.186;2023-02-28T07:50:37;24.00;;;17.75;;
76758;SDS011;65701;45.588;5.186;2023-02-28T07:53:02;23.25;;;20.00;;
76758;SDS011;65701;45.588;5.186;2023-02-28T07:55:29;19.50;;;14.25;;
76758;SDS011;65701;45.588;5.186;2023-02-28T07:57:56;24.00;;;22.25;;
76758;SDS011;65701;45.588;5.186;2023-02-28T08:00:22;16.75;;;15.00;;
76758;SDS011;65701;45.588;5.186;2023-02-28T08:02:48;15.50;;;13.00;;
76758;SDS011;65701;45.588;5.186;2023-02-28T08:05:14;15.00;;;13.00;;
76758;SDS011;65701;45.588;5.186;2023-02-28T08:07:39;40.00;;;32.75;;
76758;SDS011;65701;45.588;5.186;2023-02-28T08:10:05;14.75;;;11.50;;
76758;SDS011;65701;45.588;5.186;2023-02-28T08:12:31;52.00;;;41.50;;
76758;SDS011;65701;45.588;5.186;2023-02-28T08:14:57;15.25;;;12.50;;
76758;SDS011;65701;45.588;5.186;2023-02-28T08:17:22;11.50;;;11.25;;
76758;SDS011;65701;45.588;5.186;2023-02-28T08:19:48;14.50;;;14.50;;
76758;SDS011;65701;45.588;5.186;2023-02-28T08:22:13;19.75;;;14.75;;
76758;SDS011;65701;45.588;5.186;2023-02-28T08:24:40;17.75;;;17.75;;
76758;SDS011;65701;45.588;5.186;2023-02-28T08:27:07;14.25;;;13.50;;
76758;SDS011;65701;45.588;5.186;2023-02-28T08:29:33;15.50;;;12.75;;
76758;SDS011;65701;45.588;5.186;2023-02-28T08:31:58;11.50;;;11.50;;
76758;SDS011;65701;45.588;5.186;2023-02-28T08:34:24;13.50;;;10.50;;
76758;SDS011;65701;45.588;5.186;2023-02-28T08:36:49;20.25;;;17.00;;
76758;SDS011;65701;45.588;5.186;2023-02-28T08:39:15;27.00;;;22.75;;
76758;SDS011;65701;45.588;5.186;2023-02-28T08:41:41;19.25;;;17.25;;
76758;SDS011;65701;45.588;5.186;2023-02-28T08:44:07;12.00;;;7.25;;
76758;SDS011;65701;45.588;5.186;2023-02-28T13:45:23;28.00;;;20.50;;
76758;SDS011;65701;45.588;5.186;2023-02-28T14:18:40;44.00;;;33.00;;
76758;SDS011;65701;45.588;5.186;2023-02-28T14:45:03;25.25;;;18.25;;
76758;SDS011;65701;45.588;5.186;2023-02-28T14:48:09;20.25;;;17.50;;
76758;SDS011;65701;45.588;5.186;2023-02-28T14:50:36;24.75;;;22.25;;
76758;SDS011;65701;45.588;5.186;2023-02-28T15:08:45;21.75;;;21.75;;
76758;SDS011;65701;45.588;5.186;2023-02-28T15:22:07;32.00;;;25.25;;
76758;SDS011;65701;45.588;5.186;2023-02-28T15:24:58;20.50;;;19.75;;
76758;SDS011;65701;45.588;5.186;2023-02-28T15:27:28;29.50;;;25.75;;
76758;SDS011;65701;45.588;5.186;2023-02-28T15:30:00;40.50;;;32.00;;
76758;SDS011;65701;45.588;5.186;2023-02-28T15:32:32;24.75;;;21.25;;
76758;SDS011;65701;45.588;5.186;2023-02-28T15:35:47;30.00;;;25.50;;
76758;SDS011;65701;45.588;5.186;2023-02-28T15:37:56;16.50;;;12.00;;
76758;SDS011;65701;45.588;5.186;2023-02-28T15:40:29;25.25;;;23.25;;
76758;SDS011;65701;45.588;5.186;2023-02-28T15:48:29;26.00;;;25.25;;
76758;SDS011;65701;45.588;5.186;2023-02-28T15:51:07;24.75;;;24.00;;
76758;SDS011;65701;45.588;5.186;2023-02-28T15:53:37;28.00;;;26.50;;
76758;SDS011;65701;45.588;5.186;2023-02-28T15:56:35;28.25;;;27.00;;
76758;SDS011;65701;45.588;5.186;2023-02-28T15:59:07;30.75;;;27.00;;
76758;SDS011;65701;45.588;5.186;2023-02-28T16:01:41;34.50;;;27.25;;
76758;SDS011;65701;45.588;5.186;2023-02-28T16:04:13;21.50;;;20.50;;
76758;SDS011;65701;45.588;5.186;2023-02-28T16:06:41;24.25;;;20.00;;
76758;SDS011;65701;45.588;5.186;2023-02-28T16:09:09;23.00;;;21.00;;
76758;SDS011;65701;45.588;5.186;2023-02-28T16:11:41;21.00;;;16.75;;
76758;SDS011;65701;45.588;5.186;2023-02-28T16:14:16;30.25;;;28.00;;
76758;SDS011;65701;45.588;5.186;2023-02-28T16:16:51;30.50;;;25.00;;
76758;SDS011;65701;45.588;5.186;2023-02-28T16:19:18;35.00;;;30.50;;
76758;SDS011;65701;45.588;5.186;2023-02-28T16:21:45;28.50;;;24.00;;
76758;SDS011;65701;45.588;5.186;2023-02-28T16:24:10;24.25;;;22.75;;
76758;SDS011;65701;45.588;5.186;2023-02-28T16:26:36;24.75;;;15.00;;
76758;SDS011;65701;45.588;5.186;2023-02-28T16:29:04;22.25;;;20.50;;
76758;SDS011;65701;45.588;5.186;2023-02-28T16:32:13;29.00;;;27.25;;
76758;SDS011;65701;45.588;5.186;2023-02-28T16:34:43;28.25;;;27.75;;
76758;SDS011;65701;45.588;5.186;2023-02-28T16:37:39;31.25;;;28.00;;
76758;SDS011;65701;45.588;5.186;2023-02-28T16:40:06;23.75;;;22.50;;
76758;SDS011;65701;45.588;5.186;2023-02-28T16:42:38;20.75;;;18.75;;
76758;SDS011;65701;45.588;5.186;2023-02-28T16:45:04;32.75;;;28.25;;
76758;SDS011;65701;45.588;5.186;2023-02-28T16:47:30;35.50;;;28.50;;
76758;SDS011;65701;45.588;5.186;2023-02-28T16:49:57;27.00;;;26.00;;
76758;SDS011;65701;45.588;5.186;2023-02-28T16:52:23;37.75;;;34.50;;
76758;SDS011;65701;45.588;5.186;2023-02-28T16:54:48;30.00;;;23.50;;
76758;SDS011;65701;45.588;5.186;2023-02-28T16:57:19;33.25;;;30.75;;
76758;SDS011;65701;45.588;5.186;2023-02-28T16:59:49;24.50;;;24.50;;
76758;SDS011;65701;45.588;5.186;2023-02-28T17:02:17;22.50;;;21.50;;
76758;SDS011;65701;45.588;5.186;2023-02-28T17:04:44;24.75;;;22.00;;
76758;SDS011;65701;45.588;5.186;2023-02-28T17:07:11;36.25;;;32.75;;
76758;SDS011;65701;45.588;5.186;2023-02-28T17:09:41;34.00;;;29.50;;
76758;SDS011;65701;45.588;5.186;2023-02-28T17:12:08;28.25;;;28.00;;
76758;SDS011;65701;45.588;5.186;2023-02-28T17:14:37;49.50;;;42.00;;
76758;SDS011;65701;45.588;5.186;2023-02-28T17:17:04;30.50;;;27.75;;
76758;SDS011;65701;45.588;5.186;2023-02-28T17:19:30;34.25;;;30.75;;
76758;SDS011;65701;45.588;5.186;2023-02-28T17:21:55;36.50;;;29.00;;
76758;SDS011;65701;45.588;5.186;2023-02-28T17:24:21;31.50;;;25.50;;
76758;SDS011;65701;45.588;5.186;2023-02-28T17:26:46;37.25;;;31.00;;
76758;SDS011;65701;45.588;5.186;2023-02-28T17:29:16;49.25;;;41.75;;
76758;SDS011;65701;45.588;5.186;2023-02-28T17:31:43;34.75;;;29.25;;
76758;SDS011;65701;45.588;5.186;2023-02-28T17:34:08;76.25;;;59.50;;
76758;SDS011;65701;45.588;5.186;2023-02-28T17:36:34;55.75;;;45.75;;
76758;SDS011;65701;45.588;5.186;2023-02-28T17:39:02;57.75;;;47.75;;
76758;SDS011;65701;45.588;5.186;2023-02-28T17:41:29;54.25;;;42.25;;
76758;SDS011;65701;45.588;5.186;2023-02-28T17:43:55;17.25;;;12.25;;
76758;SDS011;65701;45.588;5.186;2023-02-28T17:46:33;34.75;;;32.75;;
76758;SDS011;65701;45.588;5.186;2023-02-28T17:49:02;38.50;;;37.00;;
76758;SDS011;65701;45.588;5.186;2023-02-28T17:54:55;51.50;;;38.50;;
76758;SDS011;65701;45.588;5.186;2023-02-28T17:57:20;53.25;;;42.50;;
76758;SDS011;65701;45.588;5.186;2023-02-28T17:59:46;45.25;;;34.75;;
76758;SDS011;65701;45.588;5.186;2023-02-28T18:02:13;37.50;;;33.75;;
76758;SDS011;65701;45.588;5.186;2023-02-28T18:04:40;32.25;;;32.00;;
76758;SDS011;65701;45.588;5.186;2023-02-28T18:07:07;28.50;;;25.50;;
76758;SDS011;65701;45.588;5.186;2023-02-28T18:09:36;26.00;;;25.75;;
76758;SDS011;65701;45.588;5.186;2023-02-28T18:12:02;39.00;;;36.50;;
76758;SDS011;65701;45.588;5.186;2023-02-28T18:14:28;30.25;;;25.50;;
76758;SDS011;65701;45.588;5.186;2023-02-28T18:16:54;35.50;;;31.00;;
76758;SDS011;65701;45.588;5.186;2023-02-28T18:19:21;32.50;;;28.00;;
76758;SDS011;65701;45.588;5.186;2023-02-28T18:21:48;22.25;;;21.75;;
76758;SDS011;65701;45.588;5.186;2023-02-28T18:24:15;33.75;;;30.25;;
76758;SDS011;65701;45.588;5.186;2023-02-28T18:26:41;35.25;;;31.00;;
76758;SDS011;65701;45.588;5.186;2023-02-28T18:29:11;38.50;;;30.75;;
76758;SDS011;65701;45.588;5.186;2023-02-28T18:31:41;33.25;;;33.25;;
76758;SDS011;65701;45.588;5.186;2023-02-28T18:34:07;32.75;;;31.00;;
76758;SDS011;65701;45.588;5.186;2023-02-28T18:36:32;18.25;;;16.00;;
76758;SDS011;65701;45.588;5.186;2023-02-28T18:38:58;27.50;;;27.25;;
76758;SDS011;65701;45.588;5.186;2023-02-28T18:41:23;32.50;;;28.25;;
76758;SDS011;65701;45.588;5.186;2023-02-28T18:43:51;33.00;;;29.50;;
76758;SDS011;65701;45.588;5.186;2023-02-28T18:46:18;29.25;;;29.00;;
76758;SDS011;65701;45.588;5.186;2023-02-28T18:48:44;30.00;;;29.00;;
76758;SDS011;65701;45.588;5.186;2023-02-28T18:51:14;36.25;;;32.00;;
76758;SDS011;65701;45.588;5.186;2023-02-28T18:54:03;27.25;;;25.75;;
76758;SDS011;65701;45.588;5.186;2023-02-28T19:00:10;39.25;;;35.25;;
76758;SDS011;65701;45.588;5.186;2023-02-28T19:02:52;31.00;;;29.25;;
76758;SDS011;65701;45.588;5.186;2023-02-28T19:08:20;30.00;;;29.50;;
76758;SDS011;65701;45.588;5.186;2023-02-28T19:10:45;33.00;;;25.00;;
76758;SDS011;65701;45.588;5.186;2023-02-28T19:13:11;28.25;;;25.50;;
76758;SDS011;65701;45.588;5.186;2023-02-28T19:15:36;32.00;;;24.25;;
76758;SDS011;65701;45.588;5.186;2023-02-28T19:18:02;29.50;;;29.50;;
76758;SDS011;65701;45.588;5.186;2023-02-28T19:20:27;26.25;;;22.00;;
76758;SDS011;65701;45.588;5.186;2023-02-28T19:23:02;32.75;;;27.50;;
76758;SDS011;65701;45.588;5.186;2023-02-28T19:25:40;33.75;;;27.25;;
76758;SDS011;65701;45.588;5.186;2023-02-28T19:28:08;28.75;;;26.00;;
76758;SDS011;65701;45.588;5.186;2023-02-28T19:30:34;25.75;;;25.00;;
76758;SDS011;65701;45.588;5.186;2023-02-28T19:40:16;39.00;;;39.00;;
76758;SDS011;65701;45.588;5.186;2023-02-28T19:42:56;37.25;;;33.25;;
76758;SDS011;65701;45.588;5.186;2023-02-28T19:52:36;28.50;;;27.00;;
76758;SDS011;65701;45.588;5.186;2023-02-28T19:58:46;32.00;;;27.50;;
76758;SDS011;65701;45.588;5.186;2023-02-28T20:04:51;32.00;;;27.50;;
76758;SDS011;65701;45.588;5.186;2023-02-28T20:21:08;32.25;;;26.75;;
76758;SDS011;65701;45.588;5.186;2023-02-28T20:23:38;35.75;;;28.75;;
76758;SDS011;65701;45.588;5.186;2023-02-28T20:26:51;25.75;;;25.75;;
76758;SDS011;65701;45.588;5.186;2023-02-28T20:29:17;34.50;;;33.25;;
76758;SDS011;65701;45.588;5.186;2023-02-28T20:31:43;34.75;;;32.00;;
76758;SDS011;65701;45.588;5.186;2023-02-28T20:34:08;32.75;;;25.75;;
76758;SDS011;65701;45.588;5.186;2023-02-28T20:36:59;29.50;;;21.25;;
76758;SDS011;65701;45.588;5.186;2023-02-28T20:43:39;37.50;;;31.75;;
76758;SDS011;65701;45.588;5.186;2023-02-28T20:46:05;30.00;;;27.75;;
76758;SDS011;65701;45.588;5.186;2023-02-28T20:48:36;36.00;;;28.50;;
76758;SDS011;65701;45.588;5.186;2023-02-28T20:51:06;32.50;;;30.75;;
76758;SDS011;65701;45.588;5.186;2023-02-28T20:53:32;40.50;;;30.50;;
76758;SDS011;65701;45.588;5.186;2023-02-28T20:56:00;28.75;;;25.75;;
76758;SDS011;65701;45.588;5.186;2023-02-28T20:58:29;37.00;;;32.25;;
76758;SDS011;65701;45.588;5.186;2023-02-28T21:04:10;42.25;;;33.75;;
76758;SDS011;65701;45.588;5.186;2023-02-28T21:06:37;27.25;;;27.25;;
76758;SDS011;65701;45.588;5.186;2023-02-28T21:09:08;42.50;;;37.25;;
76758;SDS011;65701;45.588;5.186;2023-02-28T21:11:35;39.75;;;38.50;;
76758;SDS011;65701;45.588;5.186;2023-02-28T21:14:06;46.50;;;42.00;;
76758;SDS011;65701;45.588;5.186;2023-02-28T21:16:35;46.25;;;40.00;;
76758;SDS011;65701;45.588;5.186;2023-02-28T21:19:00;45.00;;;39.25;;
76758;SDS011;65701;45.588;5.186;2023-02-28T21:21:30;47.75;;;42.75;;
